Terminal Aerodrome Forecast
Issued by NWS

Home | Current Version | Previous Version | Text Only | Print | Product List | Glossary On
Versions: 1 2 3 4 5 6 7 8 9 10 11 12 13 14 15 16 17 18 19
000
FTAK31 PAJN 281420 AAB
TAFAYA
TAF AMD
PAYA 281420Z 2814/2912 17006KT P6SM VCSH FEW005 BKN035 OVC040
      TEMPO 2814/2816 3SM SHRA BR SCT004 BKN012 OVC030
     FM282100 13010KT P6SM -SHRA BKN025 OVC035
     FM290300 10006KT 4SM -SHRA BR SCT007 OVC015
     FM290900 09004KT 5SM -SHRA BR BKN007 OVC015
      AMD LTD TO CLD VIS AND WIND 2901/2909=

USA.gov is the U.S. government's official web portal to all federal, state and local government web resources and services.